»·PEaware :: WAT169 KLAS-KSNA

WAT169 :: KLAS-KSNA

FLIGHT INFORMATION

Flight Status: Arrived
Operator:
Walker Air Transport
More flights by this operator :: More flights under this callsign
Pilot: Marty P. (27464)
Aircraft: BEECH AIRCRAFT SUPER KING AIR 350
(B350)
More flights by this aircraft type
Origin: KLAS McCarran Intl
United States
Destination: KSNA John Wayne-Orange Co
United States
More flights between these airports :: More routes between these airports
Route: LAS V538 GFS HEC KAYOH7
File this flight plan on PilotEdge
Remarks:
Altitude:
(Current/Filed)
28,000ft
Speed:
(Current/Filed)
220kts
Departed: 22-Oct-20 05:00 PM
Arrived: 22-Oct-20 05:49 PM
Distance/Time
Traveled:
197nm/0:48
Distance/Time
To Go:
Arrived

Flight Plot

Page will automatically refresh every two minutes.

Flight plan parsing failed; only flown route is shown


Map Options




Map Legend


Flown Route
Filed Route
Departure Airport
Arrival Airport
Navaid (VOR, NDB)
Fix

Horizontal Profiles

Position Reports

Time Latitude Longitude Heading Altitude Ground
Speed
22-Oct-20 16:37 36.080936 -115.172107 89 2173ft 0kts
22-Oct-20 16:38 36.080936 -115.172107 89 2173ft 0kts
22-Oct-20 16:39 36.080936 -115.172107 89 2173ft 0kts
22-Oct-20 16:40 36.080936 -115.172107 89 2173ft 0kts
22-Oct-20 16:41 36.080936 -115.172107 89 2173ft 0kts
22-Oct-20 16:42 36.080936 -115.172107 89 2173ft 0kts
22-Oct-20 16:43 36.080936 -115.172107 89 2173ft 0kts
22-Oct-20 16:44 36.080936 -115.172107 89 2173ft 0kts
22-Oct-20 16:45 36.080936 -115.172107 89 2173ft 0kts
22-Oct-20 16:46 36.080936 -115.172107 89 2173ft 0kts
22-Oct-20 16:47 36.080936 -115.172107 89 2173ft 0kts
22-Oct-20 16:48 36.080936 -115.172107 89 2173ft 0kts
22-Oct-20 16:49 36.080936 -115.172107 89 2173ft 0kts
22-Oct-20 16:50 36.080936 -115.172107 89 2173ft 0kts
22-Oct-20 16:51 36.080936 -115.172107 89 2173ft 0kts
22-Oct-20 16:52 36.080942 -115.171482 89 2171ft 9kts
22-Oct-20 16:53 36.082747 -115.167722 52 2158ft 12kts
22-Oct-20 16:54 36.087805 -115.164729 25 2137ft 25kts
22-Oct-20 16:55 36.093612 -115.161354 20 2112ft 20kts
22-Oct-20 16:56 36.099640 -115.157943 31 2090ft 17kts
22-Oct-20 16:57 36.099842 -115.157471 88 2088ft 0kts
22-Oct-20 16:58 36.097752 -115.157538 204 2092ft 22kts
22-Oct-20 16:59 36.073568 -115.171213 201 2703ft 143kts
22-Oct-20 17:00 36.034522 -115.192034 201 4266ft 170kts
22-Oct-20 17:01 35.988395 -115.215699 201 5971ft 186kts
22-Oct-20 17:02 35.941488 -115.238320 201 8173ft 181kts
22-Oct-20 17:03 35.894148 -115.260030 201 10106ft 186kts
22-Oct-20 17:04 35.844986 -115.282564 201 12390ft 193kts
22-Oct-20 17:05 35.794426 -115.304822 202 14690ft 195kts
22-Oct-20 17:06 35.743111 -115.325784 201 16867ft 196kts
22-Oct-20 17:07 35.691024 -115.345759 201 18980ft 199kts
22-Oct-20 17:08 35.637784 -115.365412 202 21314ft 204kts
22-Oct-20 17:09 35.581554 -115.385364 201 22908ft 234kts
22-Oct-20 17:10 35.526150 -115.423262 235 24253ft 209kts
22-Oct-20 17:11 35.492559 -115.473824 236 27172ft 192kts
22-Oct-20 17:12 35.454150 -115.530485 234 27921ft 255kts
22-Oct-20 17:13 35.404871 -115.601960 233 27903ft 306kts
22-Oct-20 17:14 35.347060 -115.685059 232 27898ft 332kts
22-Oct-20 17:15 35.286995 -115.770915 232 27894ft 332kts
22-Oct-20 17:16 35.226816 -115.856749 232 27897ft 332kts
22-Oct-20 17:17 35.166670 -115.942357 232 27900ft 332kts
22-Oct-20 17:18 35.106620 -116.027811 232 27899ft 332kts
22-Oct-20 17:19 35.042488 -116.109071 222 27914ft 335kts
22-Oct-20 17:20 34.982588 -116.193857 234 27911ft 330kts
22-Oct-20 17:21 34.924290 -116.280522 233 27910ft 331kts
22-Oct-20 17:22 34.865296 -116.365787 233 27890ft 331kts
22-Oct-20 17:23 34.805902 -116.451196 233 27877ft 331kts
22-Oct-20 17:24 34.742101 -116.531954 228 27877ft 332kts
22-Oct-20 17:25 34.677212 -116.611189 229 26617ft 324kts
22-Oct-20 17:26 34.614533 -116.688155 228 24438ft 322kts
22-Oct-20 17:27 34.551969 -116.764817 228 22158ft 319kts
22-Oct-20 17:28 34.490097 -116.840424 227 19868ft 314kts
22-Oct-20 17:29 34.429229 -116.914665 227 17571ft 308kts
22-Oct-20 17:30 34.369707 -116.987091 227 15278ft 301kts
22-Oct-20 17:31 34.311185 -117.058122 226 13105ft 289kts
22-Oct-20 17:32 34.251994 -117.115112 197 11968ft 255kts
22-Oct-20 17:34 34.198259 -117.156428 217 11769ft 214kts
22-Oct-20 17:35 34.150934 -117.196619 215 11345ft 213kts
22-Oct-20 17:36 34.094079 -117.243748 215 10809ft 275kts
22-Oct-20 17:37 34.027721 -117.298457 215 10058ft 298kts
22-Oct-20 17:38 33.960549 -117.353697 214 9236ft 284kts
22-Oct-20 17:39 33.895653 -117.404964 214 8595ft 273kts
22-Oct-20 17:40 33.834309 -117.454636 219 8031ft 250kts
22-Oct-20 17:41 33.809527 -117.531971 258 6553ft 253kts
22-Oct-20 17:42 33.810449 -117.609878 311 5989ft 238kts
22-Oct-20 17:43 33.853449 -117.667819 309 4975ft 222kts
22-Oct-20 17:44 33.865554 -117.730020 231 3620ft 206kts
22-Oct-20 17:45 33.825184 -117.773017 210 2959ft 180kts
22-Oct-20 17:46 33.779657 -117.802843 207 2305ft 189kts
22-Oct-20 17:47 33.734622 -117.831449 207 1264ft 175kts
22-Oct-20 17:48 33.699409 -117.853800 207 473ft 115kts
22-Oct-20 17:49 33.676418 -117.868379 207 61ft 26kts
22-Oct-20 17:50 33.674058 -117.867898 120 61ft 10kts
22-Oct-20 17:51 33.672267 -117.867266 119 61ft 11kts
22-Oct-20 17:52 33.672313 -117.866935 25 61ft 0kts

Navigation Log

Ident Type
Flight plan parsing failed, navigation log unavailable